sensor_id;sensor_type;location;lat;lon;timestamp;P1;durP1;ratioP1;P2;durP2;ratioP2
42098;SDS011;27758;55.900;8.516;2023-02-10T00:01:59;34.10;;;6.25;;
42098;SDS011;27758;55.900;8.516;2023-02-10T00:04:24;31.02;;;4.78;;
42098;SDS011;27758;55.900;8.516;2023-02-10T00:06:50;35.08;;;4.78;;
42098;SDS011;27758;55.900;8.516;2023-02-10T00:09:16;25.75;;;4.07;;
42098;SDS011;27758;55.900;8.516;2023-02-10T00:11:42;23.40;;;3.53;;
42098;SDS011;27758;55.900;8.516;2023-02-10T00:14:24;29.70;;;4.10;;
42098;SDS011;27758;55.900;8.516;2023-02-10T00:16:50;25.15;;;4.93;;
42098;SDS011;27758;55.900;8.516;2023-02-10T00:19:18;31.45;;;4.15;;
42098;SDS011;27758;55.900;8.516;2023-02-10T00:21:45;22.13;;;3.13;;
42098;SDS011;27758;55.900;8.516;2023-02-10T00:24:10;26.95;;;5.10;;
42098;SDS011;27758;55.900;8.516;2023-02-10T00:26:36;28.15;;;4.57;;
42098;SDS011;27758;55.900;8.516;2023-02-10T00:29:02;30.05;;;5.50;;
42098;SDS011;27758;55.900;8.516;2023-02-10T00:31:28;39.10;;;4.97;;
42098;SDS011;27758;55.900;8.516;2023-02-10T00:33:54;29.33;;;5.20;;
42098;SDS011;27758;55.900;8.516;2023-02-10T00:36:19;26.80;;;4.93;;
42098;SDS011;27758;55.900;8.516;2023-02-10T00:38:47;26.38;;;4.55;;
42098;SDS011;27758;55.900;8.516;2023-02-10T00:41:14;26.77;;;4.22;;
42098;SDS011;27758;55.900;8.516;2023-02-10T00:43:41;21.77;;;3.65;;
42098;SDS011;27758;55.900;8.516;2023-02-10T00:46:09;26.98;;;4.95;;
42098;SDS011;27758;55.900;8.516;2023-02-10T00:48:36;30.58;;;4.95;;
42098;SDS011;27758;55.900;8.516;2023-02-10T00:51:02;24.92;;;4.85;;
42098;SDS011;27758;55.900;8.516;2023-02-10T00:53:28;24.83;;;3.80;;
42098;SDS011;27758;55.900;8.516;2023-02-10T00:55:54;20.20;;;3.90;;
42098;SDS011;27758;55.900;8.516;2023-02-10T00:58:20;24.40;;;4.28;;
42098;SDS011;27758;55.900;8.516;2023-02-10T01:00:46;32.05;;;5.85;;
42098;SDS011;27758;55.900;8.516;2023-02-10T01:03:12;19.75;;;4.00;;
42098;SDS011;27758;55.900;8.516;2023-02-10T01:05:38;27.25;;;4.43;;
42098;SDS011;27758;55.900;8.516;2023-02-10T01:08:04;24.30;;;5.05;;
42098;SDS011;27758;55.900;8.516;2023-02-10T01:10:31;26.33;;;5.38;;
42098;SDS011;27758;55.900;8.516;2023-02-10T01:13:01;24.25;;;4.07;;
42098;SDS011;27758;55.900;8.516;2023-02-10T01:15:27;24.88;;;4.32;;
42098;SDS011;27758;55.900;8.516;2023-02-10T01:17:53;29.17;;;5.32;;
42098;SDS011;27758;55.900;8.516;2023-02-10T01:20:19;19.65;;;4.78;;
42098;SDS011;27758;55.900;8.516;2023-02-10T01:22:45;29.25;;;4.53;;
42098;SDS011;27758;55.900;8.516;2023-02-10T01:25:10;39.30;;;4.82;;
42098;SDS011;27758;55.900;8.516;2023-02-10T01:27:36;31.52;;;5.32;;
42098;SDS011;27758;55.900;8.516;2023-02-10T01:30:02;29.15;;;4.55;;
42098;SDS011;27758;55.900;8.516;2023-02-10T01:32:28;31.95;;;4.18;;
42098;SDS011;27758;55.900;8.516;2023-02-10T01:34:54;28.02;;;4.18;;
42098;SDS011;27758;55.900;8.516;2023-02-10T01:37:19;31.60;;;4.88;;
42098;SDS011;27758;55.900;8.516;2023-02-10T01:39:45;23.70;;;4.38;;
42098;SDS011;27758;55.900;8.516;2023-02-10T01:42:15;26.00;;;4.15;;
42098;SDS011;27758;55.900;8.516;2023-02-10T01:47:07;30.48;;;6.40;;
42098;SDS011;27758;55.900;8.516;2023-02-10T01:49:34;27.98;;;5.50;;
42098;SDS011;27758;55.900;8.516;2023-02-10T01:52:06;30.65;;;4.60;;
42098;SDS011;27758;55.900;8.516;2023-02-10T01:54:39;33.45;;;5.72;;
42098;SDS011;27758;55.900;8.516;2023-02-10T01:57:10;32.05;;;6.00;;
42098;SDS011;27758;55.900;8.516;2023-02-10T01:59:37;32.97;;;5.75;;
42098;SDS011;27758;55.900;8.516;2023-02-10T02:02:04;33.10;;;5.85;;
42098;SDS011;27758;55.900;8.516;2023-02-10T02:04:37;31.55;;;6.25;;
42098;SDS011;27758;55.900;8.516;2023-02-10T02:07:11;35.38;;;4.68;;
42098;SDS011;27758;55.900;8.516;2023-02-10T02:09:37;25.20;;;5.32;;
42098;SDS011;27758;55.900;8.516;2023-02-10T02:17:32;27.90;;;4.53;;
42098;SDS011;27758;55.900;8.516;2023-02-10T02:20:22;27.02;;;3.85;;
42098;SDS011;27758;55.900;8.516;2023-02-10T02:26:06;25.50;;;4.60;;
42098;SDS011;27758;55.900;8.516;2023-02-10T02:31:39;30.60;;;4.60;;
42098;SDS011;27758;55.900;8.516;2023-02-10T02:34:17;32.00;;;5.45;;
42098;SDS011;27758;55.900;8.516;2023-02-10T02:37:10;31.92;;;6.47;;
42098;SDS011;27758;55.900;8.516;2023-02-10T02:39:42;29.60;;;4.35;;
42098;SDS011;27758;55.900;8.516;2023-02-10T02:42:19;38.78;;;4.75;;
42098;SDS011;27758;55.900;8.516;2023-02-10T02:44:48;43.65;;;6.03;;
42098;SDS011;27758;55.900;8.516;2023-02-10T02:47:27;30.85;;;4.15;;
42098;SDS011;27758;55.900;8.516;2023-02-10T02:52:40;40.42;;;6.07;;
42098;SDS011;27758;55.900;8.516;2023-02-10T02:55:14;30.42;;;6.63;;
42098;SDS011;27758;55.900;8.516;2023-02-10T03:00:17;26.92;;;4.07;;
42098;SDS011;27758;55.900;8.516;2023-02-10T03:02:47;34.55;;;5.53;;
42098;SDS011;27758;55.900;8.516;2023-02-10T03:05:18;31.23;;;4.43;;
42098;SDS011;27758;55.900;8.516;2023-02-10T03:07:46;35.20;;;6.45;;
42098;SDS011;27758;55.900;8.516;2023-02-10T03:10:13;30.40;;;5.55;;
42098;SDS011;27758;55.900;8.516;2023-02-10T03:12:39;30.05;;;5.47;;
42098;SDS011;27758;55.900;8.516;2023-02-10T03:15:04;31.23;;;4.53;;
42098;SDS011;27758;55.900;8.516;2023-02-10T03:17:30;37.42;;;7.32;;
42098;SDS011;27758;55.900;8.516;2023-02-10T03:19:56;36.67;;;5.97;;
42098;SDS011;27758;55.900;8.516;2023-02-10T03:22:22;32.45;;;6.78;;
42098;SDS011;27758;55.900;8.516;2023-02-10T03:24:47;27.38;;;5.18;;
42098;SDS011;27758;55.900;8.516;2023-02-10T03:27:13;35.42;;;5.18;;
42098;SDS011;27758;55.900;8.516;2023-02-10T03:29:39;32.80;;;6.20;;
42098;SDS011;27758;55.900;8.516;2023-02-10T03:32:04;27.17;;;4.97;;
42098;SDS011;27758;55.900;8.516;2023-02-10T03:34:31;24.85;;;5.20;;
42098;SDS011;27758;55.900;8.516;2023-02-10T03:36:57;27.15;;;5.00;;
42098;SDS011;27758;55.900;8.516;2023-02-10T03:39:22;25.30;;;6.18;;
42098;SDS011;27758;55.900;8.516;2023-02-10T03:41:48;35.58;;;6.72;;
42098;SDS011;27758;55.900;8.516;2023-02-10T03:44:14;30.70;;;5.30;;
42098;SDS011;27758;55.900;8.516;2023-02-10T03:46:39;28.98;;;5.13;;
42098;SDS011;27758;55.900;8.516;2023-02-10T03:49:05;27.83;;;5.82;;
42098;SDS011;27758;55.900;8.516;2023-02-10T03:51:31;34.58;;;5.50;;
42098;SDS011;27758;55.900;8.516;2023-02-10T03:53:57;37.40;;;6.32;;
42098;SDS011;27758;55.900;8.516;2023-02-10T03:56:22;40.45;;;7.03;;
42098;SDS011;27758;55.900;8.516;2023-02-10T03:58:48;38.88;;;5.82;;
42098;SDS011;27758;55.900;8.516;2023-02-10T04:01:15;33.55;;;5.13;;
42098;SDS011;27758;55.900;8.516;2023-02-10T04:03:41;25.85;;;4.93;;
42098;SDS011;27758;55.900;8.516;2023-02-10T04:06:08;21.13;;;4.57;;
42098;SDS011;27758;55.900;8.516;2023-02-10T04:08:34;32.75;;;5.80;;
42098;SDS011;27758;55.900;8.516;2023-02-10T04:11:00;22.95;;;4.43;;
42098;SDS011;27758;55.900;8.516;2023-02-10T04:13:26;39.10;;;7.13;;
42098;SDS011;27758;55.900;8.516;2023-02-10T04:16:12;29.40;;;5.05;;
42098;SDS011;27758;55.900;8.516;2023-02-10T04:18:40;36.17;;;5.70;;
42098;SDS011;27758;55.900;8.516;2023-02-10T04:21:07;27.65;;;5.07;;
42098;SDS011;27758;55.900;8.516;2023-02-10T04:23:35;32.85;;;6.35;;
42098;SDS011;27758;55.900;8.516;2023-02-10T04:26:02;28.98;;;5.63;;
42098;SDS011;27758;55.900;8.516;2023-02-10T04:28:28;38.35;;;6.05;;
42098;SDS011;27758;55.900;8.516;2023-02-10T04:30:54;36.58;;;5.05;;
42098;SDS011;27758;55.900;8.516;2023-02-10T04:33:22;33.90;;;5.18;;
42098;SDS011;27758;55.900;8.516;2023-02-10T04:35:50;32.65;;;5.13;;
42098;SDS011;27758;55.900;8.516;2023-02-10T04:38:19;25.60;;;4.65;;
42098;SDS011;27758;55.900;8.516;2023-02-10T04:40:45;33.30;;;5.30;;
42098;SDS011;27758;55.900;8.516;2023-02-10T04:43:11;25.95;;;5.18;;
42098;SDS011;27758;55.900;8.516;2023-02-10T04:45:38;35.60;;;5.88;;
42098;SDS011;27758;55.900;8.516;2023-02-10T04:48:04;34.17;;;5.55;;
42098;SDS011;27758;55.900;8.516;2023-02-10T04:50:31;33.47;;;5.55;;
42098;SDS011;27758;55.900;8.516;2023-02-10T04:52:57;25.48;;;4.20;;
42098;SDS011;27758;55.900;8.516;2023-02-10T04:55:23;25.88;;;4.88;;
42098;SDS011;27758;55.900;8.516;2023-02-10T04:57:49;26.60;;;4.28;;
42098;SDS011;27758;55.900;8.516;2023-02-10T05:00:14;27.38;;;4.38;;
42098;SDS011;27758;55.900;8.516;2023-02-10T05:02:40;29.02;;;5.45;;
42098;SDS011;27758;55.900;8.516;2023-02-10T05:05:06;32.28;;;5.50;;
42098;SDS011;27758;55.900;8.516;2023-02-10T05:07:34;44.15;;;6.38;;
42098;SDS011;27758;55.900;8.516;2023-02-10T05:09:59;23.65;;;4.55;;
42098;SDS011;27758;55.900;8.516;2023-02-10T05:12:25;25.02;;;3.67;;
42098;SDS011;27758;55.900;8.516;2023-02-10T05:14:51;35.28;;;5.50;;
42098;SDS011;27758;55.900;8.516;2023-02-10T05:17:16;25.17;;;5.10;;
42098;SDS011;27758;55.900;8.516;2023-02-10T05:19:42;30.77;;;4.70;;
42098;SDS011;27758;55.900;8.516;2023-02-10T05:22:08;26.58;;;5.70;;
42098;SDS011;27758;55.900;8.516;2023-02-10T05:24:33;37.55;;;5.05;;
42098;SDS011;27758;55.900;8.516;2023-02-10T05:26:59;32.67;;;5.35;;
42098;SDS011;27758;55.900;8.516;2023-02-10T05:29:25;39.00;;;5.95;;
42098;SDS011;27758;55.900;8.516;2023-02-10T05:31:50;25.45;;;5.45;;
42098;SDS011;27758;55.900;8.516;2023-02-10T05:34:16;21.52;;;4.20;;
42098;SDS011;27758;55.900;8.516;2023-02-10T05:36:42;30.48;;;4.93;;
42098;SDS011;27758;55.900;8.516;2023-02-10T05:39:09;23.83;;;4.85;;
42098;SDS011;27758;55.900;8.516;2023-02-10T05:41:54;40.00;;;4.72;;
42098;SDS011;27758;55.900;8.516;2023-02-10T05:44:22;31.15;;;6.93;;
42098;SDS011;27758;55.900;8.516;2023-02-10T05:46:48;34.47;;;7.43;;
42098;SDS011;27758;55.900;8.516;2023-02-10T05:49:15;31.85;;;5.47;;
42098;SDS011;27758;55.900;8.516;2023-02-10T05:51:41;33.83;;;5.63;;
42098;SDS011;27758;55.900;8.516;2023-02-10T05:54:07;47.47;;;7.60;;
42098;SDS011;27758;55.900;8.516;2023-02-10T05:56:33;31.58;;;5.18;;
42098;SDS011;27758;55.900;8.516;2023-02-10T05:58:59;36.42;;;6.97;;
42098;SDS011;27758;55.900;8.516;2023-02-10T06:01:25;35.28;;;5.47;;
42098;SDS011;27758;55.900;8.516;2023-02-10T06:03:51;30.52;;;5.60;;
42098;SDS011;27758;55.900;8.516;2023-02-10T06:06:17;25.30;;;6.05;;
42098;SDS011;27758;55.900;8.516;2023-02-10T06:08:43;25.02;;;5.90;;
42098;SDS011;27758;55.900;8.516;2023-02-10T06:11:08;40.95;;;6.22;;
42098;SDS011;27758;55.900;8.516;2023-02-10T06:13:34;27.60;;;4.30;;
42098;SDS011;27758;55.900;8.516;2023-02-10T06:16:01;25.17;;;4.82;;
42098;SDS011;27758;55.900;8.516;2023-02-10T06:18:27;33.05;;;5.72;;
42098;SDS011;27758;55.900;8.516;2023-02-10T06:20:53;29.88;;;5.45;;
42098;SDS011;27758;55.900;8.516;2023-02-10T06:23:19;24.77;;;5.25;;
42098;SDS011;27758;55.900;8.516;2023-02-10T06:25:45;30.55;;;5.90;;
42098;SDS011;27758;55.900;8.516;2023-02-10T06:28:11;33.60;;;5.28;;
42098;SDS011;27758;55.900;8.516;2023-02-10T06:30:39;31.50;;;4.80;;
42098;SDS011;27758;55.900;8.516;2023-02-10T06:33:05;41.42;;;5.28;;
42098;SDS011;27758;55.900;8.516;2023-02-10T06:35:31;24.88;;;4.43;;
42098;SDS011;27758;55.900;8.516;2023-02-10T06:37:57;36.65;;;5.63;;
42098;SDS011;27758;55.900;8.516;2023-02-10T06:40:23;38.85;;;5.20;;
42098;SDS011;27758;55.900;8.516;2023-02-10T06:42:49;25.70;;;4.43;;
42098;SDS011;27758;55.900;8.516;2023-02-10T06:45:15;21.35;;;5.28;;
42098;SDS011;27758;55.900;8.516;2023-02-10T06:47:42;28.13;;;5.22;;
42098;SDS011;27758;55.900;8.516;2023-02-10T06:50:09;25.73;;;5.32;;
42098;SDS011;27758;55.900;8.516;2023-02-10T06:52:35;31.48;;;5.65;;
42098;SDS011;27758;55.900;8.516;2023-02-10T06:55:03;19.67;;;4.65;;
42098;SDS011;27758;55.900;8.516;2023-02-10T06:57:31;17.40;;;3.92;;
42098;SDS011;27758;55.900;8.516;2023-02-10T06:59:57;24.13;;;4.88;;
42098;SDS011;27758;55.900;8.516;2023-02-10T07:02:24;27.00;;;4.85;;
42098;SDS011;27758;55.900;8.516;2023-02-10T07:04:50;32.65;;;4.88;;
42098;SDS011;27758;55.900;8.516;2023-02-10T07:07:15;19.80;;;4.32;;
42098;SDS011;27758;55.900;8.516;2023-02-10T07:09:41;23.80;;;4.05;;
42098;SDS011;27758;55.900;8.516;2023-02-10T07:12:07;28.17;;;3.50;;
42098;SDS011;27758;55.900;8.516;2023-02-10T07:14:33;25.80;;;4.50;;
42098;SDS011;27758;55.900;8.516;2023-02-10T07:16:59;27.40;;;4.70;;
42098;SDS011;27758;55.900;8.516;2023-02-10T07:19:25;29.55;;;4.15;;
42098;SDS011;27758;55.900;8.516;2023-02-10T07:21:51;23.48;;;3.72;;
42098;SDS011;27758;55.900;8.516;2023-02-10T07:24:16;25.58;;;3.72;;
42098;SDS011;27758;55.900;8.516;2023-02-10T07:26:42;21.27;;;3.58;;
42098;SDS011;27758;55.900;8.516;2023-02-10T07:29:09;18.95;;;3.20;;
42098;SDS011;27758;55.900;8.516;2023-02-10T07:31:34;14.93;;;3.35;;
42098;SDS011;27758;55.900;8.516;2023-02-10T07:34:01;24.77;;;3.83;;
42098;SDS011;27758;55.900;8.516;2023-02-10T07:36:28;19.30;;;3.28;;
42098;SDS011;27758;55.900;8.516;2023-02-10T07:38:53;24.13;;;3.53;;
42098;SDS011;27758;55.900;8.516;2023-02-10T07:41:19;21.27;;;3.42;;
42098;SDS011;27758;55.900;8.516;2023-02-10T07:43:45;22.83;;;3.38;;
42098;SDS011;27758;55.900;8.516;2023-02-10T07:46:11;17.05;;;3.03;;
42098;SDS011;27758;55.900;8.516;2023-02-10T07:48:37;20.27;;;3.60;;
42098;SDS011;27758;55.900;8.516;2023-02-10T07:51:03;24.42;;;2.90;;
42098;SDS011;27758;55.900;8.516;2023-02-10T07:53:29;11.70;;;2.95;;
42098;SDS011;27758;55.900;8.516;2023-02-10T07:55:57;18.80;;;3.28;;
42098;SDS011;27758;55.900;8.516;2023-02-10T07:58:24;19.25;;;3.90;;
42098;SDS011;27758;55.900;8.516;2023-02-10T08:00:49;23.27;;;3.65;;
42098;SDS011;27758;55.900;8.516;2023-02-10T08:03:15;23.38;;;3.05;;
42098;SDS011;27758;55.900;8.516;2023-02-10T08:05:41;33.60;;;4.22;;
42098;SDS011;27758;55.900;8.516;2023-02-10T08:08:07;18.92;;;3.17;;
42098;SDS011;27758;55.900;8.516;2023-02-10T08:10:34;18.98;;;3.72;;
42098;SDS011;27758;55.900;8.516;2023-02-10T08:13:01;30.63;;;5.28;;
42098;SDS011;27758;55.900;8.516;2023-02-10T08:15:27;19.80;;;4.28;;
42098;SDS011;27758;55.900;8.516;2023-02-10T08:17:52;22.48;;;4.25;;
42098;SDS011;27758;55.900;8.516;2023-02-10T08:20:18;19.52;;;4.43;;
42098;SDS011;27758;55.900;8.516;2023-02-10T08:22:44;14.52;;;3.08;;
42098;SDS011;27758;55.900;8.516;2023-02-10T08:25:09;27.70;;;4.65;;
42098;SDS011;27758;55.900;8.516;2023-02-10T08:27:35;17.95;;;3.08;;
42098;SDS011;27758;55.900;8.516;2023-02-10T08:30:01;25.42;;;3.92;;
42098;SDS011;27758;55.900;8.516;2023-02-10T08:32:29;23.23;;;4.40;;
42098;SDS011;27758;55.900;8.516;2023-02-10T08:34:55;20.08;;;4.10;;
42098;SDS011;27758;55.900;8.516;2023-02-10T08:37:21;19.42;;;3.58;;
42098;SDS011;27758;55.900;8.516;2023-02-10T08:39:47;14.85;;;3.97;;
42098;SDS011;27758;55.900;8.516;2023-02-10T08:42:12;18.88;;;3.80;;
42098;SDS011;27758;55.900;8.516;2023-02-10T08:44:38;19.95;;;4.45;;
42098;SDS011;27758;55.900;8.516;2023-02-10T08:47:04;18.45;;;4.25;;
42098;SDS011;27758;55.900;8.516;2023-02-10T08:49:30;23.38;;;4.20;;
42098;SDS011;27758;55.900;8.516;2023-02-10T08:51:55;39.53;;;5.03;;
42098;SDS011;27758;55.900;8.516;2023-02-10T08:54:21;29.88;;;5.32;;
42098;SDS011;27758;55.900;8.516;2023-02-10T08:56:47;24.90;;;3.90;;
42098;SDS011;27758;55.900;8.516;2023-02-10T08:59:17;29.20;;;4.18;;
42098;SDS011;27758;55.900;8.516;2023-02-10T09:01:43;29.38;;;4.60;;
42098;SDS011;27758;55.900;8.516;2023-02-10T09:04:09;24.00;;;4.10;;
42098;SDS011;27758;55.900;8.516;2023-02-10T09:06:37;31.13;;;5.07;;
42098;SDS011;27758;55.900;8.516;2023-02-10T09:09:08;30.25;;;4.68;;
42098;SDS011;27758;55.900;8.516;2023-02-10T09:11:35;22.33;;;4.20;;
42098;SDS011;27758;55.900;8.516;2023-02-10T09:14:02;28.08;;;4.85;;
42098;SDS011;27758;55.900;8.516;2023-02-10T09:16:27;30.58;;;5.22;;
42098;SDS011;27758;55.900;8.516;2023-02-10T09:18:53;30.83;;;5.32;;
42098;SDS011;27758;55.900;8.516;2023-02-10T09:21:19;31.20;;;5.22;;
42098;SDS011;27758;55.900;8.516;2023-02-10T09:23:45;24.55;;;5.47;;
42098;SDS011;27758;55.900;8.516;2023-02-10T09:26:11;30.92;;;6.22;;
42098;SDS011;27758;55.900;8.516;2023-02-10T09:28:37;35.47;;;5.63;;
42098;SDS011;27758;55.900;8.516;2023-02-10T09:31:04;35.08;;;6.55;;
42098;SDS011;27758;55.900;8.516;2023-02-10T09:33:30;24.77;;;4.63;;
42098;SDS011;27758;55.900;8.516;2023-02-10T09:35:56;34.55;;;5.32;;
42098;SDS011;27758;55.900;8.516;2023-02-10T09:38:22;41.58;;;6.43;;
42098;SDS011;27758;55.900;8.516;2023-02-10T09:49:07;33.15;;;5.43;;
42098;SDS011;27758;55.900;8.516;2023-02-10T09:51:50;37.83;;;7.43;;
42098;SDS011;27758;55.900;8.516;2023-02-10T09:54:27;34.25;;;5.82;;
42098;SDS011;27758;55.900;8.516;2023-02-10T09:56:57;32.47;;;5.60;;
42098;SDS011;27758;55.900;8.516;2023-02-10T09:59:30;26.20;;;5.13;;
42098;SDS011;27758;55.900;8.516;2023-02-10T10:02:01;34.30;;;5.53;;
42098;SDS011;27758;55.900;8.516;2023-02-10T10:04:37;34.78;;;5.55;;
42098;SDS011;27758;55.900;8.516;2023-02-10T10:07:10;34.13;;;5.70;;
42098;SDS011;27758;55.900;8.516;2023-02-10T10:09:45;28.88;;;5.50;;
42098;SDS011;27758;55.900;8.516;2023-02-10T10:12:18;28.98;;;5.45;;
42098;SDS011;27758;55.900;8.516;2023-02-10T10:14:44;30.52;;;6.80;;
42098;SDS011;27758;55.900;8.516;2023-02-10T10:28:17;36.38;;;6.30;;
42098;SDS011;27758;55.900;8.516;2023-02-10T10:31:06;34.88;;;5.45;;
42098;SDS011;27758;55.900;8.516;2023-02-10T10:39:00;35.28;;;5.35;;
42098;SDS011;27758;55.900;8.516;2023-02-10T10:41:36;24.95;;;5.28;;
42098;SDS011;27758;55.900;8.516;2023-02-10T10:44:02;31.92;;;5.55;;
42098;SDS011;27758;55.900;8.516;2023-02-10T10:49:14;30.77;;;5.75;;
42098;SDS011;27758;55.900;8.516;2023-02-10T10:51:41;41.22;;;6.30;;
42098;SDS011;27758;55.900;8.516;2023-02-10T10:54:11;25.48;;;4.70;;
42098;SDS011;27758;55.900;8.516;2023-02-10T10:56:44;30.20;;;6.05;;
42098;SDS011;27758;55.900;8.516;2023-02-10T10:59:15;33.72;;;6.05;;
42098;SDS011;27758;55.900;8.516;2023-02-10T11:01:46;31.30;;;5.40;;
42098;SDS011;27758;55.900;8.516;2023-02-10T11:04:17;30.33;;;6.07;;
42098;SDS011;27758;55.900;8.516;2023-02-10T11:06:46;29.15;;;4.95;;
42098;SDS011;27758;55.900;8.516;2023-02-10T11:11:49;26.75;;;4.47;;
42098;SDS011;27758;55.900;8.516;2023-02-10T11:14:26;32.65;;;5.43;;
42098;SDS011;27758;55.900;8.516;2023-02-10T11:16:58;23.65;;;4.55;;
42098;SDS011;27758;55.900;8.516;2023-02-10T11:19:33;30.58;;;5.00;;
42098;SDS011;27758;55.900;8.516;2023-02-10T11:21:59;33.30;;;5.32;;
42098;SDS011;27758;55.900;8.516;2023-02-10T11:24:27;31.63;;;4.95;;
42098;SDS011;27758;55.900;8.516;2023-02-10T11:29:23;37.28;;;7.13;;
42098;SDS011;27758;55.900;8.516;2023-02-10T11:31:50;30.63;;;5.97;;
42098;SDS011;27758;55.900;8.516;2023-02-10T11:34:31;35.17;;;6.22;;
42098;SDS011;27758;55.900;8.516;2023-02-10T11:37:16;29.85;;;4.97;;
42098;SDS011;27758;55.900;8.516;2023-02-10T11:39:47;20.67;;;4.00;;
42098;SDS011;27758;55.900;8.516;2023-02-10T11:42:32;20.92;;;5.13;;
42098;SDS011;27758;55.900;8.516;2023-02-10T11:47:26;22.63;;;5.15;;
42098;SDS011;27758;55.900;8.516;2023-02-10T11:49:53;25.27;;;5.35;;
42098;SDS011;27758;55.900;8.516;2023-02-10T11:52:20;28.52;;;4.32;;
42098;SDS011;27758;55.900;8.516;2023-02-10T11:54:49;25.55;;;4.78;;
42098;SDS011;27758;55.900;8.516;2023-02-10T12:00:39;26.95;;;5.25;;
42098;SDS011;27758;55.900;8.516;2023-02-10T12:03:30;25.27;;;4.63;;
42098;SDS011;27758;55.900;8.516;2023-02-10T12:06:05;27.08;;;4.97;;
42098;SDS011;27758;55.900;8.516;2023-02-10T12:11:32;20.27;;;3.67;;
42098;SDS011;27758;55.900;8.516;2023-02-10T12:17:30;28.80;;;4.50;;
42098;SDS011;27758;55.900;8.516;2023-02-10T12:23:00;24.83;;;4.15;;
42098;SDS011;27758;55.900;8.516;2023-02-10T12:31:40;24.90;;;4.65;;
42098;SDS011;27758;55.900;8.516;2023-02-10T12:40:14;20.27;;;4.47;;
42098;SDS011;27758;55.900;8.516;2023-02-10T12:45:39;28.52;;;4.25;;
42098;SDS011;27758;55.900;8.516;2023-02-10T12:51:13;30.00;;;5.20;;
42098;SDS011;27758;55.900;8.516;2023-02-10T12:55:04;25.42;;;5.18;;
42098;SDS011;27758;55.900;8.516;2023-02-10T12:57:19;19.48;;;4.32;;
42098;SDS011;27758;55.900;8.516;2023-02-10T12:59:54;22.05;;;4.50;;
42098;SDS011;27758;55.900;8.516;2023-02-10T13:02:39;26.40;;;5.40;;
42098;SDS011;27758;55.900;8.516;2023-02-10T13:05:09;29.52;;;4.30;;
42098;SDS011;27758;55.900;8.516;2023-02-10T13:12:58;29.80;;;4.25;;
42098;SDS011;27758;55.900;8.516;2023-02-10T13:15:35;19.70;;;4.90;;
42098;SDS011;27758;55.900;8.516;2023-02-10T13:29:12;25.00;;;3.83;;
42098;SDS011;27758;55.900;8.516;2023-02-10T13:31:47;24.05;;;4.03;;
42098;SDS011;27758;55.900;8.516;2023-02-10T13:34:27;25.35;;;4.82;;
42098;SDS011;27758;55.900;8.516;2023-02-10T13:40:02;28.33;;;6.63;;
42098;SDS011;27758;55.900;8.516;2023-02-10T13:42:38;26.98;;;5.60;;
42098;SDS011;27758;55.900;8.516;2023-02-10T13:50:07;27.10;;;5.38;;
42098;SDS011;27758;55.900;8.516;2023-02-10T13:57:57;30.23;;;6.00;;
42098;SDS011;27758;55.900;8.516;2023-02-10T14:00:27;19.10;;;5.03;;
42098;SDS011;27758;55.900;8.516;2023-02-10T14:05:36;33.42;;;7.28;;
42098;SDS011;27758;55.900;8.516;2023-02-10T14:08:14;31.42;;;7.53;;
42098;SDS011;27758;55.900;8.516;2023-02-10T14:13:43;34.70;;;5.57;;
42098;SDS011;27758;55.900;8.516;2023-02-10T14:16:35;30.25;;;5.50;;
42098;SDS011;27758;55.900;8.516;2023-02-10T14:19:04;26.05;;;5.68;;
42098;SDS011;27758;55.900;8.516;2023-02-10T14:21:45;34.83;;;6.88;;
42098;SDS011;27758;55.900;8.516;2023-02-10T14:24:12;24.65;;;5.35;;
42098;SDS011;27758;55.900;8.516;2023-02-10T14:26:43;37.10;;;7.72;;
42098;SDS011;27758;55.900;8.516;2023-02-10T14:29:13;29.52;;;5.80;;
42098;SDS011;27758;55.900;8.516;2023-02-10T14:31:41;32.80;;;6.90;;
42098;SDS011;27758;55.900;8.516;2023-02-10T14:34:51;32.45;;;6.57;;
42098;SDS011;27758;55.900;8.516;2023-02-10T14:37:17;30.38;;;5.68;;
42098;SDS011;27758;55.900;8.516;2023-02-10T14:39:51;38.50;;;5.93;;
42098;SDS011;27758;55.900;8.516;2023-02-10T14:42:18;34.35;;;6.28;;
42098;SDS011;27758;55.900;8.516;2023-02-10T14:44:45;31.67;;;6.47;;
42098;SDS011;27758;55.900;8.516;2023-02-10T14:47:18;37.73;;;6.00;;
42098;SDS011;27758;55.900;8.516;2023-02-10T14:49:53;37.88;;;7.85;;
42098;SDS011;27758;55.900;8.516;2023-02-10T14:54:53;28.50;;;5.90;;
42098;SDS011;27758;55.900;8.516;2023-02-10T14:57:20;40.08;;;6.65;;
42098;SDS011;27758;55.900;8.516;2023-02-10T14:59:53;29.30;;;5.85;;
42098;SDS011;27758;55.900;8.516;2023-02-10T15:02:22;29.55;;;5.53;;
42098;SDS011;27758;55.900;8.516;2023-02-10T15:04:50;33.40;;;6.57;;
42098;SDS011;27758;55.900;8.516;2023-02-10T15:07:20;37.22;;;6.85;;
42098;SDS011;27758;55.900;8.516;2023-02-10T15:09:50;50.00;;;8.70;;
42098;SDS011;27758;55.900;8.516;2023-02-10T15:12:17;30.70;;;7.35;;
42098;SDS011;27758;55.900;8.516;2023-02-10T15:14:48;32.20;;;6.30;;
42098;SDS011;27758;55.900;8.516;2023-02-10T15:17:25;27.90;;;6.70;;
42098;SDS011;27758;55.900;8.516;2023-02-10T15:22:33;40.40;;;7.60;;
42098;SDS011;27758;55.900;8.516;2023-02-10T15:27:51;34.35;;;6.45;;
42098;SDS011;27758;55.900;8.516;2023-02-10T15:30:21;32.03;;;5.68;;
42098;SDS011;27758;55.900;8.516;2023-02-10T15:32:49;32.55;;;5.70;;
42098;SDS011;27758;55.900;8.516;2023-02-10T15:35:19;36.83;;;6.50;;
42098;SDS011;27758;55.900;8.516;2023-02-10T15:37:48;34.67;;;8.15;;
42098;SDS011;27758;55.900;8.516;2023-02-10T15:40:17;39.90;;;6.32;;
42098;SDS011;27758;55.900;8.516;2023-02-10T15:43:48;33.38;;;6.28;;
42098;SDS011;27758;55.900;8.516;2023-02-10T15:49:03;37.15;;;6.72;;
42098;SDS011;27758;55.900;8.516;2023-02-10T15:51:31;27.15;;;6.38;;
42098;SDS011;27758;55.900;8.516;2023-02-10T15:54:01;31.10;;;6.80;;
42098;SDS011;27758;55.900;8.516;2023-02-10T15:56:28;43.72;;;14.00;;
42098;SDS011;27758;55.900;8.516;2023-02-10T15:58:54;38.88;;;7.10;;
42098;SDS011;27758;55.900;8.516;2023-02-10T16:01:20;38.00;;;10.48;;
42098;SDS011;27758;55.900;8.516;2023-02-10T16:03:45;41.47;;;8.23;;
42098;SDS011;27758;55.900;8.516;2023-02-10T16:06:12;32.38;;;7.35;;
42098;SDS011;27758;55.900;8.516;2023-02-10T16:08:39;33.60;;;7.22;;
42098;SDS011;27758;55.900;8.516;2023-02-10T16:11:06;27.83;;;6.75;;
42098;SDS011;27758;55.900;8.516;2023-02-10T16:13:33;37.03;;;8.15;;
42098;SDS011;27758;55.900;8.516;2023-02-10T16:15:59;36.85;;;7.80;;
42098;SDS011;27758;55.900;8.516;2023-02-10T16:18:25;37.90;;;6.68;;
42098;SDS011;27758;55.900;8.516;2023-02-10T16:20:54;35.67;;;7.47;;
42098;SDS011;27758;55.900;8.516;2023-02-10T16:23:21;42.30;;;9.55;;
42098;SDS011;27758;55.900;8.516;2023-02-10T16:25:47;30.77;;;6.82;;
42098;SDS011;27758;55.900;8.516;2023-02-10T16:28:14;43.58;;;8.88;;
42098;SDS011;27758;55.900;8.516;2023-02-10T16:30:41;37.50;;;7.25;;
42098;SDS011;27758;55.900;8.516;2023-02-10T16:33:07;36.03;;;7.78;;
42098;SDS011;27758;55.900;8.516;2023-02-10T16:35:33;31.58;;;6.65;;
42098;SDS011;27758;55.900;8.516;2023-02-10T16:37:59;32.15;;;7.10;;
42098;SDS011;27758;55.900;8.516;2023-02-10T16:40:26;43.05;;;7.75;;
42098;SDS011;27758;55.900;8.516;2023-02-10T16:42:54;40.33;;;7.38;;
42098;SDS011;27758;55.900;8.516;2023-02-10T16:45:21;33.67;;;7.35;;
42098;SDS011;27758;55.900;8.516;2023-02-10T16:47:50;32.67;;;8.85;;
42098;SDS011;27758;55.900;8.516;2023-02-10T16:50:19;28.55;;;8.23;;
42098;SDS011;27758;55.900;8.516;2023-02-10T16:52:50;44.08;;;8.20;;
42098;SDS011;27758;55.900;8.516;2023-02-10T16:55:16;52.45;;;8.50;;